createdAt,value
2022-11-26T00:00:13.615Z,18.15
2022-11-26T00:02:40.389Z,16.90
2022-11-26T00:05:11.457Z,18.02
2022-11-26T00:07:41.023Z,15.90
2022-11-26T00:10:17.030Z,17.38
2022-11-26T00:12:43.622Z,17.48
2022-11-26T00:15:15.920Z,17.95
2022-11-26T00:17:42.500Z,18.13
2022-11-26T00:20:09.627Z,17.67
2022-11-26T00:22:42.731Z,17.10
2022-11-26T00:25:17.259Z,16.80
2022-11-26T00:27:43.988Z,16.10
2022-11-26T00:30:19.281Z,17.52
2022-11-26T00:32:46.297Z,16.75
2022-11-26T00:35:13.194Z,16.75
2022-11-26T00:37:44.025Z,18.02
2022-11-26T00:40:20.351Z,17.05
2022-11-26T00:42:46.994Z,17.30
2022-11-26T00:45:22.330Z,16.85
2022-11-26T00:47:49.388Z,16.35
2022-11-26T00:50:18.933Z,17.58
2022-11-26T00:52:48.108Z,16.20
2022-11-26T00:55:22.743Z,17.63
2022-11-26T00:57:49.331Z,16.83
2022-11-26T01:00:18.325Z,18.95
2022-11-26T01:02:45.129Z,17.35
2022-11-26T01:05:12.068Z,17.45
2022-11-26T01:07:39.820Z,16.85
2022-11-26T01:10:15.672Z,16.15
2022-11-26T01:12:42.303Z,16.35
2022-11-26T01:15:09.710Z,16.95
2022-11-26T01:17:36.303Z,17.38
2022-11-26T01:20:03.461Z,18.13
2022-11-26T01:22:30.193Z,17.30
2022-11-26T01:24:56.766Z,17.38
2022-11-26T01:27:24.695Z,16.25
2022-11-26T01:29:51.287Z,17.10
2022-11-26T01:32:17.914Z,17.80
2022-11-26T01:34:44.496Z,18.27
2022-11-26T01:37:12.644Z,20.40
2022-11-26T01:39:39.315Z,18.65
2022-11-26T01:42:15.865Z,19.08
2022-11-26T01:44:43.804Z,18.38
2022-11-26T01:47:21.577Z,18.70
2022-11-26T01:50:21.519Z,19.85
2022-11-26T01:52:48.275Z,19.08
2022-11-26T01:55:17.446Z,21.45
2022-11-26T01:57:44.954Z,19.70
2022-11-26T02:00:14.383Z,19.15
2022-11-26T02:02:41.587Z,20.52
2022-11-26T02:05:18.172Z,21.75
2022-11-26T02:07:45.729Z,21.48
2022-11-26T02:10:13.160Z,22.90
2022-11-26T02:12:40.768Z,23.52
2022-11-26T02:15:09.008Z,22.52
2022-11-26T02:17:41.477Z,23.30
2022-11-26T02:20:25.308Z,22.20
2022-11-26T02:25:53.835Z,19.45
2022-11-26T02:28:34.708Z,21.50
2022-11-26T02:31:08.960Z,22.65
2022-11-26T02:33:44.568Z,24.92
2022-11-26T02:36:16.878Z,22.80
2022-11-26T02:38:44.070Z,24.10
2022-11-26T02:41:10.618Z,25.27
2022-11-26T02:43:39.077Z,24.58
2022-11-26T02:46:11.810Z,23.27
2022-11-26T02:48:42.576Z,23.33
2022-11-26T02:51:12.899Z,22.88
2022-11-26T02:53:40.271Z,23.92
2022-11-26T02:56:09.348Z,23.52
2022-11-26T02:58:36.647Z,23.67
2022-11-26T03:01:09.560Z,25.67
2022-11-26T03:03:42.318Z,23.38
2022-11-26T03:06:10.853Z,25.65
2022-11-26T03:08:37.956Z,24.75
2022-11-26T03:11:05.349Z,25.60
2022-11-26T03:13:32.096Z,26.52
2022-11-26T03:15:58.801Z,25.27
2022-11-26T03:18:26.785Z,27.27
2022-11-26T03:20:53.365Z,26.15
2022-11-26T03:23:20.030Z,25.88
2022-11-26T03:25:46.669Z,28.10
2022-11-26T03:28:13.250Z,26.48
2022-11-26T03:30:39.826Z,25.27
2022-11-26T03:33:06.378Z,26.20
2022-11-26T03:35:34.308Z,26.75
2022-11-26T03:38:00.906Z,28.00
2022-11-26T03:40:27.590Z,28.20
2022-11-26T03:42:54.150Z,27.40
2022-11-26T03:45:20.698Z,26.90
2022-11-26T03:47:47.349Z,27.27
2022-11-26T03:53:55.460Z,26.75
2022-11-26T03:56:22.106Z,25.25
2022-11-26T03:58:48.792Z,27.17
2022-11-26T04:01:15.428Z,24.58
2022-11-26T04:03:42.012Z,26.10
2022-11-26T04:06:08.745Z,26.40
2022-11-26T04:08:35.362Z,26.50
2022-11-26T04:11:03.425Z,27.55
2022-11-26T04:13:30.072Z,26.88
2022-11-26T04:15:56.633Z,26.55
2022-11-26T04:18:23.309Z,26.25
2022-11-26T04:20:53.088Z,25.25
2022-11-26T04:23:20.385Z,26.17
2022-11-26T04:25:47.155Z,24.55
2022-11-26T04:28:15.133Z,24.00
2022-11-26T04:30:41.854Z,24.08
2022-11-26T04:33:08.699Z,22.73
2022-11-26T04:35:35.337Z,24.15
2022-11-26T04:38:01.893Z,23.45
2022-11-26T04:40:28.524Z,23.42
2022-11-26T04:42:55.096Z,21.45
2022-11-26T04:45:23.016Z,22.17
2022-11-26T04:47:49.574Z,21.23
2022-11-26T04:50:16.216Z,21.33
2022-11-26T04:52:43.070Z,20.52
2022-11-26T04:55:10.305Z,20.85
2022-11-26T04:57:36.896Z,20.50
2022-11-26T05:00:05.105Z,18.45
2022-11-26T05:02:33.189Z,19.90
2022-11-26T05:04:59.796Z,20.00
2022-11-26T05:07:26.423Z,19.35
2022-11-26T05:09:53.010Z,20.17
2022-11-26T05:12:19.609Z,20.17
2022-11-26T05:14:46.165Z,19.30
2022-11-26T05:17:12.733Z,19.50
2022-11-26T05:19:40.724Z,20.15
2022-11-26T05:22:07.304Z,20.35
2022-11-26T05:24:33.930Z,20.95
2022-11-26T05:27:00.581Z,20.63
2022-11-26T05:29:27.199Z,19.45
2022-11-26T05:31:53.786Z,19.75
2022-11-26T05:34:20.563Z,19.55
2022-11-26T05:36:48.525Z,19.45
2022-11-26T05:39:15.128Z,18.88
2022-11-26T05:41:42.039Z,19.55
2022-11-26T05:44:08.674Z,19.27
2022-11-26T05:46:35.920Z,19.23
2022-11-26T05:49:02.470Z,17.58
2022-11-26T05:51:29.066Z,18.67
2022-11-26T05:53:57.077Z,18.15
2022-11-26T05:56:24.018Z,17.23
2022-11-26T05:58:50.585Z,17.55
2022-11-26T06:01:17.439Z,17.88
2022-11-26T06:03:44.089Z,16.58
2022-11-26T06:06:10.736Z,15.98
2022-11-26T06:08:37.946Z,14.82
2022-11-26T06:11:06.158Z,16.58
2022-11-26T06:13:32.778Z,14.98
2022-11-26T06:15:59.380Z,14.93
2022-11-26T06:18:25.937Z,13.88
2022-11-26T06:20:52.559Z,13.77
2022-11-26T06:23:19.159Z,13.63
2022-11-26T06:25:45.736Z,16.70
2022-11-26T06:28:13.670Z,17.60
2022-11-26T06:30:40.279Z,17.48
2022-11-26T06:33:06.861Z,16.27
2022-11-26T06:35:34.120Z,16.75
2022-11-26T06:38:00.724Z,16.98
2022-11-26T06:40:27.394Z,16.48
2022-11-26T06:42:54.044Z,16.95
2022-11-26T06:45:23.461Z,16.35
2022-11-26T06:47:51.203Z,15.70
2022-11-26T06:50:20.130Z,15.10
2022-11-26T06:52:49.929Z,15.02
2022-11-26T06:55:16.655Z,14.55
2022-11-26T06:57:43.249Z,15.02
2022-11-26T07:00:11.217Z,15.07
2022-11-26T07:02:39.270Z,14.68
2022-11-26T07:05:06.055Z,13.45
2022-11-26T07:07:32.703Z,14.23
2022-11-26T07:09:59.307Z,14.35
2022-11-26T07:12:26.479Z,13.85
2022-11-26T07:14:53.051Z,12.55
2022-11-26T07:17:19.633Z,12.93
2022-11-26T07:19:47.612Z,12.05
2022-11-26T07:22:14.257Z,12.73
2022-11-26T07:24:41.096Z,12.93
2022-11-26T07:27:08.595Z,11.63
2022-11-26T07:29:35.473Z,13.07
2022-11-26T07:32:02.282Z,11.45
2022-11-26T07:34:28.921Z,11.98
2022-11-26T07:36:58.319Z,11.55
2022-11-26T07:39:25.111Z,11.40
2022-11-26T07:41:51.695Z,11.30
2022-11-26T07:44:18.321Z,12.63
2022-11-26T07:46:44.897Z,12.25
2022-11-26T07:49:11.497Z,11.82
2022-11-26T07:51:38.160Z,11.63
2022-11-26T07:54:07.491Z,11.82
2022-11-26T07:56:34.460Z,13.32
2022-11-26T07:59:01.492Z,11.45
2022-11-26T08:01:29.242Z,11.85
2022-11-26T08:03:56.829Z,11.38
2022-11-26T08:06:24.708Z,10.75
2022-11-26T08:08:52.210Z,9.98
2022-11-26T08:11:22.264Z,8.90
2022-11-26T08:13:49.463Z,10.20
2022-11-26T08:16:16.340Z,9.98
2022-11-26T08:18:43.375Z,11.15
2022-11-26T08:21:10.071Z,9.57
2022-11-26T08:23:37.545Z,9.38
2022-11-26T08:26:30.698Z,10.30
2022-11-26T08:28:55.749Z,10.50
2022-11-26T08:31:23.091Z,10.45
2022-11-26T08:33:49.788Z,10.48
2022-11-26T08:36:16.469Z,9.82
2022-11-26T08:38:43.018Z,12.13
2022-11-26T08:41:10.977Z,10.90
2022-11-26T08:44:05.793Z,9.98
2022-11-26T08:46:26.507Z,11.35
2022-11-26T08:48:55.275Z,9.52
2022-11-26T08:51:22.072Z,10.13
2022-11-26T08:53:48.641Z,9.73
2022-11-26T08:56:15.288Z,9.27
2022-11-26T08:58:43.330Z,9.95
2022-11-26T09:01:11.615Z,9.90
2022-11-26T09:03:39.602Z,10.50
2022-11-26T09:06:07.804Z,8.77
2022-11-26T09:08:35.265Z,9.82
2022-11-26T09:11:01.822Z,9.35
2022-11-26T09:13:28.571Z,9.57
2022-11-26T09:15:55.174Z,8.48
2022-11-26T09:18:21.729Z,9.45
2022-11-26T09:20:52.922Z,7.95
2022-11-26T09:23:23.640Z,8.02
2022-11-26T09:25:50.563Z,8.10
2022-11-26T09:28:17.215Z,7.97
2022-11-26T09:30:43.799Z,9.85
2022-11-26T09:33:10.391Z,8.23
2022-11-26T09:35:37.041Z,9.57
2022-11-26T09:38:04.966Z,8.95
2022-11-26T09:40:40.814Z,9.07
2022-11-26T09:43:20.239Z,9.30
2022-11-26T09:45:52.531Z,8.45
2022-11-26T09:48:23.096Z,8.73
2022-11-26T09:50:52.229Z,7.90
2022-11-26T09:53:23.673Z,9.23
2022-11-26T09:55:52.965Z,7.95
2022-11-26T09:58:27.314Z,8.68
2022-11-26T10:00:58.119Z,8.02
2022-11-26T10:03:31.480Z,9.18
2022-11-26T10:06:02.082Z,8.85
2022-11-26T10:09:02.912Z,8.57
2022-11-26T10:11:35.719Z,8.68
2022-11-26T10:14:18.540Z,9.32
2022-11-26T10:16:56.212Z,8.38
2022-11-26T10:19:31.853Z,9.73
2022-11-26T10:22:03.482Z,8.70
2022-11-26T10:24:34.935Z,9.05
2022-11-26T10:27:09.440Z,9.25
2022-11-26T10:29:41.218Z,8.77
2022-11-26T10:32:14.877Z,9.18
2022-11-26T10:34:47.934Z,10.60
2022-11-26T10:37:14.556Z,10.18
2022-11-26T10:39:42.567Z,11.60
2022-11-26T10:42:16.236Z,10.82
2022-11-26T10:44:43.069Z,11.38
2022-11-26T10:47:25.324Z,13.13
2022-11-26T10:49:53.433Z,12.48
2022-11-26T10:52:24.744Z,11.07
2022-11-26T10:55:10.135Z,12.23
2022-11-26T10:57:41.666Z,13.07
2022-11-26T11:00:30.385Z,14.18
2022-11-26T11:02:58.407Z,13.50
2022-11-26T11:05:25.606Z,13.75
2022-11-26T11:07:52.419Z,12.43
2022-11-26T11:10:22.676Z,12.45
2022-11-26T11:12:50.751Z,12.18
2022-11-26T11:15:24.402Z,12.75
2022-11-26T11:17:58.008Z,11.70
2022-11-26T11:20:33.373Z,12.27
2022-11-26T11:23:04.080Z,11.23
2022-11-26T11:25:34.912Z,13.60
2022-11-26T11:28:11.753Z,10.68
2022-11-26T11:30:40.593Z,11.40
2022-11-26T11:33:18.803Z,11.05
2022-11-26T11:35:56.804Z,10.65
2022-11-26T11:38:25.886Z,9.82
2022-11-26T11:40:54.373Z,8.73
2022-11-26T11:43:21.677Z,9.30
2022-11-26T11:46:14.006Z,8.15
2022-11-26T11:48:53.353Z,7.10
2022-11-26T11:51:29.623Z,7.57
2022-11-26T11:54:10.228Z,7.78
2022-11-26T11:56:41.103Z,6.75
2022-11-26T11:59:23.121Z,6.95
2022-11-26T12:02:12.808Z,6.07
2022-11-26T12:04:56.318Z,5.30
2022-11-26T12:07:34.915Z,6.18
2022-11-26T12:10:09.368Z,5.70
2022-11-26T12:12:40.800Z,5.90
2022-11-26T12:15:14.730Z,5.45
2022-11-26T12:17:46.705Z,6.38
2022-11-26T12:20:20.067Z,6.32
2022-11-26T12:22:51.831Z,5.05
2022-11-26T12:25:26.858Z,6.07
2022-11-26T12:27:59.271Z,6.32
2022-11-26T12:30:35.405Z,6.63
2022-11-26T12:33:07.118Z,6.32
2022-11-26T12:35:36.292Z,6.40
2022-11-26T12:38:11.970Z,6.57
2022-11-26T12:40:48.063Z,7.05
2022-11-26T12:43:20.953Z,7.20
2022-11-26T12:45:52.772Z,6.68
2022-11-26T12:48:31.280Z,5.93
2022-11-26T12:51:05.829Z,7.32
2022-11-26T12:53:40.421Z,7.53
2022-11-26T12:56:17.481Z,6.38
2022-11-26T12:58:53.795Z,7.43
2022-11-26T13:01:20.676Z,8.25
2022-11-26T13:03:47.366Z,8.02
2022-11-26T13:06:26.559Z,7.00
2022-11-26T13:09:03.090Z,8.25
2022-11-26T13:11:39.718Z,6.72
2022-11-26T13:14:17.252Z,6.95
2022-11-26T13:16:49.903Z,7.03
2022-11-26T13:19:29.189Z,7.05
2022-11-26T13:22:22.607Z,6.93
2022-11-26T13:25:03.322Z,7.90
2022-11-26T13:27:47.169Z,7.57
2022-11-26T13:30:20.557Z,6.82
2022-11-26T13:38:19.892Z,7.20
2022-11-26T13:41:21.290Z,6.45
2022-11-26T13:44:24.660Z,8.65
2022-11-26T13:46:59.633Z,7.70
2022-11-26T13:49:33.306Z,8.65
2022-11-26T13:52:04.241Z,8.30
2022-11-26T13:54:38.890Z,9.10
2022-11-26T13:57:11.809Z,9.18
2022-11-26T13:59:46.074Z,8.38
2022-11-26T14:02:40.389Z,8.55
2022-11-26T14:05:09.878Z,8.07
2022-11-26T14:07:37.199Z,8.85
2022-11-26T14:10:06.670Z,9.15
2022-11-26T14:13:11.387Z,8.95
2022-11-26T14:15:52.831Z,10.40
2022-11-26T14:18:54.143Z,8.73
2022-11-26T14:21:22.003Z,8.50
2022-11-26T14:23:50.420Z,9.32
2022-11-26T14:26:27.076Z,10.35
2022-11-26T14:29:04.983Z,8.80
2022-11-26T14:31:34.197Z,10.30
2022-11-26T14:34:13.736Z,9.05
2022-11-26T14:36:52.523Z,8.85
2022-11-26T14:39:19.240Z,8.80
2022-11-26T14:42:06.400Z,9.48
2022-11-26T14:44:33.667Z,8.90
2022-11-26T14:47:09.268Z,8.38
2022-11-26T14:49:40.217Z,7.70
2022-11-26T14:52:17.539Z,8.60
2022-11-26T14:54:47.621Z,8.40
2022-11-26T14:57:19.164Z,8.18
2022-11-26T14:59:57.279Z,7.82
2022-11-26T15:02:26.494Z,7.93
2022-11-26T15:05:02.909Z,7.32
2022-11-26T15:07:31.405Z,7.43
2022-11-26T15:10:03.835Z,7.47
2022-11-26T15:12:31.074Z,8.52
2022-11-26T15:14:59.884Z,7.63
2022-11-26T15:17:29.345Z,8.98
2022-11-26T15:19:59.590Z,7.35
2022-11-26T15:22:33.591Z,8.35
2022-11-26T15:25:00.455Z,7.65
2022-11-26T15:27:29.327Z,7.82
2022-11-26T15:29:55.963Z,7.57
2022-11-26T15:32:27.091Z,8.35
2022-11-26T15:34:55.386Z,8.07
2022-11-26T15:37:22.211Z,7.85
2022-11-26T15:40:07.109Z,9.10
2022-11-26T15:42:34.291Z,8.48
2022-11-26T15:45:01.403Z,7.55
2022-11-26T15:47:29.218Z,8.63
2022-11-26T15:49:58.545Z,7.43
2022-11-26T15:52:27.576Z,8.32
2022-11-26T15:55:16.549Z,8.13
2022-11-26T15:57:44.055Z,7.05
2022-11-26T16:00:21.637Z,7.97
2022-11-26T16:02:48.406Z,9.13
2022-11-26T16:05:23.364Z,11.18
2022-11-26T16:07:57.557Z,8.80
2022-11-26T16:10:28.308Z,7.78
2022-11-26T16:13:18.020Z,8.25
2022-11-26T16:15:47.660Z,8.82
2022-11-26T16:18:16.753Z,7.70
2022-11-26T16:20:43.489Z,7.82
2022-11-26T16:23:20.745Z,8.32
2022-11-26T16:26:14.375Z,10.10
2022-11-26T16:28:41.110Z,17.42
2022-11-26T16:31:07.961Z,13.70
2022-11-26T16:33:34.748Z,13.10
2022-11-26T16:36:01.464Z,11.35
2022-11-26T16:38:28.666Z,12.10
2022-11-26T16:40:55.666Z,11.50
2022-11-26T16:43:23.755Z,11.27
2022-11-26T16:45:54.770Z,10.55
2022-11-26T16:48:24.315Z,11.20
2022-11-26T16:50:54.512Z,11.23
2022-11-26T16:53:21.375Z,10.07
2022-11-26T16:55:48.355Z,11.85
2022-11-26T16:58:25.149Z,9.68
2022-11-26T17:00:54.009Z,10.15
2022-11-26T17:03:20.985Z,13.50
2022-11-26T17:05:49.054Z,17.95
2022-11-26T17:08:15.822Z,24.38
2022-11-26T17:10:42.570Z,23.73
2022-11-26T17:13:09.318Z,23.05
2022-11-26T17:15:35.995Z,18.35
2022-11-26T17:18:11.025Z,16.55
2022-11-26T17:20:37.694Z,13.48
2022-11-26T17:23:04.641Z,11.25
2022-11-26T17:25:31.232Z,9.93
2022-11-26T17:27:57.866Z,11.02
2022-11-26T17:30:24.773Z,11.27
2022-11-26T17:32:51.723Z,9.93
2022-11-26T17:35:19.787Z,10.95
2022-11-26T17:37:46.647Z,9.73
2022-11-26T17:40:17.649Z,8.75
2022-11-26T17:42:44.411Z,8.40
2022-11-26T17:45:11.765Z,10.23
2022-11-26T17:47:39.062Z,8.98
2022-11-26T17:50:07.126Z,9.05
2022-11-26T17:52:35.188Z,9.25
2022-11-26T17:55:01.880Z,9.82
2022-11-26T17:57:28.512Z,8.40
2022-11-26T17:59:55.168Z,8.27
2022-11-26T18:02:21.884Z,8.63
2022-11-26T18:04:48.506Z,9.32
2022-11-26T18:07:16.735Z,8.77
2022-11-26T18:09:45.633Z,8.63
2022-11-26T18:12:21.555Z,8.52
2022-11-26T18:14:51.189Z,8.85
2022-11-26T18:17:17.844Z,9.95
2022-11-26T18:19:44.970Z,8.60
2022-11-26T18:22:14.929Z,10.50
2022-11-26T18:24:41.648Z,10.32
2022-11-26T18:27:09.763Z,10.95
2022-11-26T18:29:36.405Z,10.45
2022-11-26T18:32:03.127Z,10.25
2022-11-26T18:34:29.724Z,9.82
2022-11-26T18:36:56.363Z,9.05
2022-11-26T18:39:23.100Z,9.75
2022-11-26T18:41:49.703Z,9.85
2022-11-26T18:44:17.696Z,9.82
2022-11-26T18:46:44.355Z,10.00
2022-11-26T18:49:11.385Z,10.18
2022-11-26T18:51:37.958Z,9.82
2022-11-26T18:54:05.060Z,9.45
2022-11-26T18:56:31.720Z,9.57
2022-11-26T18:58:58.365Z,10.70
2022-11-26T19:01:28.617Z,10.23
2022-11-26T19:03:56.854Z,10.35
2022-11-26T19:06:25.993Z,9.50
2022-11-26T19:08:58.198Z,8.95
2022-11-26T19:11:25.323Z,9.98
2022-11-26T19:13:52.100Z,9.70
2022-11-26T19:16:19.920Z,8.85
2022-11-26T19:18:48.633Z,9.20
2022-11-26T19:21:17.931Z,10.02
2022-11-26T19:23:45.211Z,9.57
2022-11-26T19:26:12.591Z,9.70
2022-11-26T19:28:39.229Z,12.07
2022-11-26T19:31:08.541Z,8.60
2022-11-26T19:33:35.315Z,9.07
2022-11-26T19:36:05.742Z,9.45
2022-11-26T19:38:32.875Z,10.07
2022-11-26T19:41:00.385Z,8.88
2022-11-26T19:43:28.651Z,10.18
2022-11-26T19:46:02.003Z,10.98
2022-11-26T19:48:28.624Z,10.50
2022-11-26T19:50:55.594Z,11.55
2022-11-26T19:53:23.874Z,11.38
2022-11-26T19:56:01.481Z,10.40
2022-11-26T19:58:29.646Z,9.98
2022-11-26T20:00:56.422Z,11.63
2022-11-26T20:03:23.932Z,11.15
2022-11-26T20:05:51.196Z,11.52
2022-11-26T20:08:18.366Z,16.08
2022-11-26T20:10:49.864Z,12.27
2022-11-26T20:13:16.723Z,14.88
2022-11-26T20:15:44.004Z,12.70
2022-11-26T20:18:11.588Z,13.70
2022-11-26T20:20:39.161Z,13.48
2022-11-26T20:23:05.885Z,13.68
2022-11-26T20:25:33.751Z,13.00
2022-11-26T20:28:02.663Z,15.50
2022-11-26T20:30:30.012Z,14.27
2022-11-26T20:32:56.731Z,13.43
2022-11-26T20:35:23.356Z,14.18
2022-11-26T20:37:50.065Z,14.43
2022-11-26T20:40:16.700Z,15.10
2022-11-26T20:42:43.306Z,12.68
2022-11-26T20:45:12.361Z,12.95
2022-11-26T20:47:38.963Z,13.70
2022-11-26T20:50:06.845Z,13.35
2022-11-26T20:52:34.039Z,12.40
2022-11-26T20:55:00.590Z,13.43
2022-11-26T20:57:27.230Z,11.70
2022-11-26T20:59:53.776Z,13.60
2022-11-26T21:02:21.871Z,14.90
2022-11-26T21:04:48.453Z,13.13
2022-11-26T21:07:15.095Z,12.23
2022-11-26T21:09:41.908Z,12.65
2022-11-26T21:12:08.592Z,12.88
2022-11-26T21:14:35.196Z,12.25
2022-11-26T21:17:01.849Z,11.27
2022-11-26T21:19:29.948Z,10.88
2022-11-26T21:21:56.507Z,10.73
2022-11-26T21:24:23.172Z,11.27
2022-11-26T21:26:49.745Z,10.75
2022-11-26T21:29:16.402Z,12.48
2022-11-26T21:31:43.025Z,12.68
2022-11-26T21:34:10.901Z,12.10
2022-11-26T21:36:38.865Z,11.88
2022-11-26T21:39:05.630Z,12.75
2022-11-26T21:41:32.185Z,11.63
2022-11-26T21:43:58.882Z,12.57
2022-11-26T21:46:26.699Z,12.07
2022-11-26T21:48:54.061Z,11.25
2022-11-26T21:51:24.093Z,11.98
2022-11-26T21:53:53.746Z,12.32
2022-11-26T21:56:22.600Z,13.63
2022-11-26T21:58:50.091Z,12.93
2022-11-26T22:01:19.627Z,11.02
2022-11-26T22:03:48.696Z,11.48
2022-11-26T22:06:16.365Z,14.13
2022-11-26T22:08:43.505Z,13.40
2022-11-26T22:11:13.566Z,12.98
2022-11-26T22:13:41.383Z,12.52
2022-11-26T22:16:09.176Z,13.30
2022-11-26T22:18:36.622Z,12.25
2022-11-26T22:21:03.593Z,12.82
2022-11-26T22:23:30.137Z,12.45
2022-11-26T22:25:56.719Z,12.85
2022-11-26T22:28:29.797Z,12.40
2022-11-26T22:33:23.346Z,12.10
2022-11-26T22:35:49.894Z,12.13
2022-11-26T22:38:16.621Z,14.18
2022-11-26T22:40:43.189Z,12.02
2022-11-26T22:43:09.787Z,12.45
2022-11-26T22:45:38.300Z,12.50
2022-11-26T22:48:05.848Z,14.00
2022-11-26T22:50:32.469Z,14.48
2022-11-26T22:52:59.001Z,13.02
2022-11-26T22:55:25.663Z,13.60
2022-11-26T22:57:52.251Z,13.35
2022-11-26T23:00:45.717Z,13.48
2022-11-26T23:03:12.620Z,13.20
2022-11-26T23:05:39.554Z,13.40
2022-11-26T23:08:06.350Z,12.02
2022-11-26T23:10:32.988Z,12.73
2022-11-26T23:12:59.607Z,12.85
2022-11-26T23:15:26.258Z,12.02
2022-11-26T23:17:54.248Z,12.95
2022-11-26T23:20:20.821Z,13.43
2022-11-26T23:22:47.477Z,11.93
2022-11-26T23:25:14.100Z,14.13
2022-11-26T23:27:40.696Z,12.25
2022-11-26T23:30:08.576Z,11.52
2022-11-26T23:32:35.307Z,12.32
2022-11-26T23:35:03.559Z,12.20
2022-11-26T23:37:30.124Z,12.68
2022-11-26T23:39:56.713Z,11.80
2022-11-26T23:42:23.721Z,13.73
2022-11-26T23:44:50.356Z,13.38
2022-11-26T23:47:16.915Z,11.43
2022-11-26T23:49:43.506Z,10.57
2022-11-26T23:52:11.480Z,10.60
2022-11-26T23:54:38.063Z,10.48
2022-11-26T23:57:04.737Z,12.20
2022-11-26T23:59:31.396Z,12.38
